Hlavní strana
METAR-TAF:

METAR-TAF

Letiště :

Letiště Longyearbyen

Longyearbyen, Norsko

zeměpisná šířka: 78-15N, zeměpisná délka: 015-28E, výška: 2 m

Aktuální stav počasí

Zpráva byla vytvořena před 25 minutami, v 12:50 UTC
Východojihovýchodní vítr 8 kt
Teplota -22°C
Vlhkost vzduchu 76%
Tlak 1007 hPa
Viditelnost: 5000 m
Polojasno ve výšce 100 ft
mlha v blízkosti

METAR: ENSB 291250Z 11008KT 9999 5000E VCFG SCT001 M22/M25 Q1007 RMK WIND 1400FT 11004KT

Čas: 14:15 (13:15 UTC)

Předpověď počasí

Předpověď platná od 29 v 12 UTC do 01 v 12 UTC
Východní vítr 9 kt
Viditelnost 10 km a více
Skoro jasno ve výšce 100 ft
mlha v blízkosti

TAF: ENSB 2912/0112 10009KT 9999 VCFG FEW001

Stav a předpovědi počasí z více než 4 000 letišť (zprávy METAR a TAF).

Červené a žluté tečky na mapě představují dostupné meteorologické stanice.

Když kurzor umístíte na tečku, zobrazí se název stanice.

Pak kliknutím zobrazíte stav a předpověď počasí.

Chcete-li změnit mapu, kliknutím na zelené tlačítko se znaménkem +mapu přiblížíte, kliknutím na zelené tlačítko se znaménkem – mapu oddálíte a kliknutím na zelené šipky přejdete na sousední mapy.


METAR-TAF: